sensor_id;sensor_type;location;lat;lon;timestamp;P1;durP1;ratioP1;P2;durP2;ratioP2
51824;SDS011;37879;52.986;6.282;2023-04-03T00:02:07;1.08;;;0.22;;
51824;SDS011;37879;52.986;6.282;2023-04-03T00:04:32;1.70;;;0.40;;
51824;SDS011;37879;52.986;6.282;2023-04-03T00:06:58;1.73;;;0.40;;
51824;SDS011;37879;52.986;6.282;2023-04-03T00:09:24;2.25;;;0.50;;
51824;SDS011;37879;52.986;6.282;2023-04-03T00:11:49;2.97;;;0.60;;
51824;SDS011;37879;52.986;6.282;2023-04-03T00:14:15;0.73;;;0.30;;
51824;SDS011;37879;52.986;6.282;2023-04-03T00:16:40;2.15;;;0.65;;
51824;SDS011;37879;52.986;6.282;2023-04-03T00:19:06;3.35;;;0.80;;
51824;SDS011;37879;52.986;6.282;2023-04-03T00:21:32;3.25;;;0.68;;
51824;SDS011;37879;52.986;6.282;2023-04-03T00:23:57;1.33;;;0.65;;
51824;SDS011;37879;52.986;6.282;2023-04-03T00:26:23;3.30;;;0.60;;
51824;SDS011;37879;52.986;6.282;2023-04-03T00:28:49;2.25;;;0.60;;
51824;SDS011;37879;52.986;6.282;2023-04-03T00:31:15;1.75;;;0.70;;
51824;SDS011;37879;52.986;6.282;2023-04-03T00:33:41;1.08;;;0.40;;
51824;SDS011;37879;52.986;6.282;2023-04-03T00:36:10;2.22;;;0.40;;
51824;SDS011;37879;52.986;6.282;2023-04-03T00:38:37;1.25;;;0.50;;
51824;SDS011;37879;52.986;6.282;2023-04-03T00:41:03;1.23;;;0.40;;
51824;SDS011;37879;52.986;6.282;2023-04-03T00:43:29;2.28;;;0.47;;
51824;SDS011;37879;52.986;6.282;2023-04-03T00:45:56;2.47;;;0.50;;
51824;SDS011;37879;52.986;6.282;2023-04-03T00:51:24;1.65;;;0.40;;
51824;SDS011;37879;52.986;6.282;2023-04-03T00:53:53;1.85;;;0.38;;
51824;SDS011;37879;52.986;6.282;2023-04-03T00:56:23;0.93;;;0.40;;
51824;SDS011;37879;52.986;6.282;2023-04-03T00:58:57;0.85;;;0.25;;
51824;SDS011;37879;52.986;6.282;2023-04-03T01:01:27;1.83;;;0.70;;
51824;SDS011;37879;52.986;6.282;2023-04-03T01:03:53;3.05;;;0.68;;
51824;SDS011;37879;52.986;6.282;2023-04-03T01:06:21;2.05;;;0.57;;
51824;SDS011;37879;52.986;6.282;2023-04-03T01:08:52;1.50;;;0.60;;
51824;SDS011;37879;52.986;6.282;2023-04-03T01:11:19;2.45;;;0.68;;
51824;SDS011;37879;52.986;6.282;2023-04-03T01:13:46;1.63;;;0.40;;
51824;SDS011;37879;52.986;6.282;2023-04-03T01:16:11;7.22;;;1.25;;
51824;SDS011;37879;52.986;6.282;2023-04-03T01:18:37;1.88;;;0.60;;
51824;SDS011;37879;52.986;6.282;2023-04-03T01:21:16;4.80;;;0.60;;
51824;SDS011;37879;52.986;6.282;2023-04-03T01:26:42;3.15;;;0.43;;
51824;SDS011;37879;52.986;6.282;2023-04-03T01:29:08;6.38;;;1.92;;
51824;SDS011;37879;52.986;6.282;2023-04-03T01:33:59;1.85;;;0.70;;
51824;SDS011;37879;52.986;6.282;2023-04-03T01:36:26;1.20;;;0.50;;
51824;SDS011;37879;52.986;6.282;2023-04-03T01:38:55;2.92;;;0.60;;
51824;SDS011;37879;52.986;6.282;2023-04-03T01:41:23;3.28;;;0.65;;
51824;SDS011;37879;52.986;6.282;2023-04-03T01:43:49;2.63;;;0.43;;
51824;SDS011;37879;52.986;6.282;2023-04-03T01:46:15;2.20;;;0.68;;
51824;SDS011;37879;52.986;6.282;2023-04-03T01:48:42;1.15;;;0.40;;
51824;SDS011;37879;52.986;6.282;2023-04-03T01:51:07;2.67;;;0.70;;
51824;SDS011;37879;52.986;6.282;2023-04-03T01:53:33;2.13;;;0.57;;
51824;SDS011;37879;52.986;6.282;2023-04-03T01:55:59;3.67;;;0.95;;
51824;SDS011;37879;52.986;6.282;2023-04-03T01:58:25;4.60;;;0.75;;
51824;SDS011;37879;52.986;6.282;2023-04-03T02:00:50;1.60;;;0.70;;
51824;SDS011;37879;52.986;6.282;2023-04-03T02:03:16;1.30;;;0.60;;
51824;SDS011;37879;52.986;6.282;2023-04-03T02:05:43;2.55;;;0.85;;
51824;SDS011;37879;52.986;6.282;2023-04-03T02:08:09;4.28;;;1.08;;
51824;SDS011;37879;52.986;6.282;2023-04-03T02:10:35;1.50;;;0.68;;
51824;SDS011;37879;52.986;6.282;2023-04-03T02:13:00;2.85;;;0.68;;
51824;SDS011;37879;52.986;6.282;2023-04-03T02:15:26;1.80;;;0.63;;
51824;SDS011;37879;52.986;6.282;2023-04-03T02:17:51;2.67;;;1.13;;
51824;SDS011;37879;52.986;6.282;2023-04-03T02:20:17;2.80;;;1.10;;
51824;SDS011;37879;52.986;6.282;2023-04-03T02:22:43;4.97;;;1.17;;
51824;SDS011;37879;52.986;6.282;2023-04-03T02:25:09;1.30;;;0.57;;
51824;SDS011;37879;52.986;6.282;2023-04-03T02:27:35;2.53;;;0.95;;
51824;SDS011;37879;52.986;6.282;2023-04-03T02:30:01;3.38;;;1.33;;
51824;SDS011;37879;52.986;6.282;2023-04-03T02:32:28;2.42;;;0.88;;
51824;SDS011;37879;52.986;6.282;2023-04-03T02:34:54;4.22;;;1.00;;
51824;SDS011;37879;52.986;6.282;2023-04-03T02:37:20;2.47;;;0.65;;
51824;SDS011;37879;52.986;6.282;2023-04-03T02:39:46;4.20;;;1.52;;
51824;SDS011;37879;52.986;6.282;2023-04-03T02:42:11;5.35;;;1.15;;
51824;SDS011;37879;52.986;6.282;2023-04-03T02:44:37;1.75;;;0.80;;
51824;SDS011;37879;52.986;6.282;2023-04-03T02:47:04;4.30;;;1.25;;
51824;SDS011;37879;52.986;6.282;2023-04-03T02:49:30;3.22;;;0.65;;
51824;SDS011;37879;52.986;6.282;2023-04-03T02:51:56;4.38;;;1.27;;
51824;SDS011;37879;52.986;6.282;2023-04-03T02:54:21;4.20;;;0.90;;
51824;SDS011;37879;52.986;6.282;2023-04-03T02:56:48;2.00;;;0.85;;
51824;SDS011;37879;52.986;6.282;2023-04-03T02:59:14;2.40;;;1.17;;
51824;SDS011;37879;52.986;6.282;2023-04-03T03:01:40;3.85;;;1.42;;
51824;SDS011;37879;52.986;6.282;2023-04-03T03:04:06;6.55;;;1.52;;
51824;SDS011;37879;52.986;6.282;2023-04-03T03:06:31;2.30;;;0.80;;
51824;SDS011;37879;52.986;6.282;2023-04-03T03:08:57;3.70;;;1.05;;
51824;SDS011;37879;52.986;6.282;2023-04-03T03:11:23;3.00;;;1.30;;
51824;SDS011;37879;52.986;6.282;2023-04-03T03:13:50;3.10;;;1.20;;
51824;SDS011;37879;52.986;6.282;2023-04-03T03:16:15;3.55;;;1.45;;
51824;SDS011;37879;52.986;6.282;2023-04-03T03:18:41;2.45;;;0.70;;
51824;SDS011;37879;52.986;6.282;2023-04-03T03:21:07;2.22;;;0.80;;
51824;SDS011;37879;52.986;6.282;2023-04-03T03:23:34;2.97;;;0.80;;
51824;SDS011;37879;52.986;6.282;2023-04-03T03:26:02;5.63;;;1.40;;
51824;SDS011;37879;52.986;6.282;2023-04-03T03:28:29;2.85;;;0.98;;
51824;SDS011;37879;52.986;6.282;2023-04-03T03:30:55;2.38;;;0.93;;
51824;SDS011;37879;52.986;6.282;2023-04-03T03:33:21;3.80;;;0.90;;
51824;SDS011;37879;52.986;6.282;2023-04-03T03:35:47;2.35;;;1.13;;
51824;SDS011;37879;52.986;6.282;2023-04-03T03:38:13;7.53;;;1.35;;
51824;SDS011;37879;52.986;6.282;2023-04-03T03:40:38;6.40;;;1.80;;
51824;SDS011;37879;52.986;6.282;2023-04-03T03:43:04;3.33;;;1.20;;
51824;SDS011;37879;52.986;6.282;2023-04-03T03:45:30;4.18;;;1.20;;
51824;SDS011;37879;52.986;6.282;2023-04-03T03:47:56;3.28;;;1.27;;
51824;SDS011;37879;52.986;6.282;2023-04-03T03:50:22;3.42;;;1.20;;
51824;SDS011;37879;52.986;6.282;2023-04-03T03:52:48;2.85;;;1.02;;
51824;SDS011;37879;52.986;6.282;2023-04-03T03:55:14;3.72;;;1.00;;
51824;SDS011;37879;52.986;6.282;2023-04-03T03:57:39;3.03;;;0.95;;
51824;SDS011;37879;52.986;6.282;2023-04-03T04:00:05;3.95;;;1.33;;
51824;SDS011;37879;52.986;6.282;2023-04-03T04:02:32;2.70;;;1.05;;
51824;SDS011;37879;52.986;6.282;2023-04-03T04:04:58;3.83;;;1.33;;
51824;SDS011;37879;52.986;6.282;2023-04-03T04:07:23;2.97;;;1.00;;
51824;SDS011;37879;52.986;6.282;2023-04-03T04:09:49;3.10;;;1.00;;
51824;SDS011;37879;52.986;6.282;2023-04-03T04:12:15;15.60;;;3.72;;
51824;SDS011;37879;52.986;6.282;2023-04-03T04:14:41;3.67;;;1.10;;
51824;SDS011;37879;52.986;6.282;2023-04-03T04:17:06;3.38;;;1.08;;
51824;SDS011;37879;52.986;6.282;2023-04-03T04:19:32;6.10;;;1.48;;
51824;SDS011;37879;52.986;6.282;2023-04-03T04:21:58;9.20;;;1.38;;
51824;SDS011;37879;52.986;6.282;2023-04-03T04:24:24;4.95;;;1.30;;
51824;SDS011;37879;52.986;6.282;2023-04-03T04:26:49;2.53;;;1.23;;
51824;SDS011;37879;52.986;6.282;2023-04-03T04:29:15;3.20;;;1.25;;
51824;SDS011;37879;52.986;6.282;2023-04-03T04:31:41;4.05;;;1.23;;
51824;SDS011;37879;52.986;6.282;2023-04-03T04:34:07;4.00;;;1.33;;
51824;SDS011;37879;52.986;6.282;2023-04-03T04:36:32;2.20;;;1.30;;
51824;SDS011;37879;52.986;6.282;2023-04-03T04:38:58;3.38;;;1.30;;
51824;SDS011;37879;52.986;6.282;2023-04-03T04:41:23;4.35;;;1.67;;
51824;SDS011;37879;52.986;6.282;2023-04-03T04:43:49;4.57;;;1.95;;
51824;SDS011;37879;52.986;6.282;2023-04-03T04:46:15;6.97;;;1.75;;
51824;SDS011;37879;52.986;6.282;2023-04-03T04:48:41;5.75;;;2.25;;
51824;SDS011;37879;52.986;6.282;2023-04-03T04:51:07;5.70;;;2.33;;
51824;SDS011;37879;52.986;6.282;2023-04-03T04:53:33;3.38;;;1.70;;
51824;SDS011;37879;52.986;6.282;2023-04-03T04:55:58;6.15;;;2.95;;
51824;SDS011;37879;52.986;6.282;2023-04-03T04:58:24;4.88;;;1.48;;
51824;SDS011;37879;52.986;6.282;2023-04-03T05:00:57;5.20;;;1.65;;
51824;SDS011;37879;52.986;6.282;2023-04-03T05:03:24;4.30;;;1.48;;
51824;SDS011;37879;52.986;6.282;2023-04-03T05:05:50;5.28;;;1.70;;
51824;SDS011;37879;52.986;6.282;2023-04-03T05:08:15;4.72;;;2.00;;
51824;SDS011;37879;52.986;6.282;2023-04-03T05:10:41;5.28;;;1.80;;
51824;SDS011;37879;52.986;6.282;2023-04-03T05:13:07;5.00;;;1.88;;
51824;SDS011;37879;52.986;6.282;2023-04-03T05:15:32;3.78;;;1.52;;
51824;SDS011;37879;52.986;6.282;2023-04-03T05:17:58;3.80;;;1.92;;
51824;SDS011;37879;52.986;6.282;2023-04-03T05:20:24;7.55;;;1.75;;
51824;SDS011;37879;52.986;6.282;2023-04-03T05:22:50;4.70;;;1.73;;
51824;SDS011;37879;52.986;6.282;2023-04-03T05:25:18;6.28;;;1.77;;
51824;SDS011;37879;52.986;6.282;2023-04-03T05:27:44;6.15;;;1.70;;
51824;SDS011;37879;52.986;6.282;2023-04-03T05:30:10;3.45;;;1.40;;
51824;SDS011;37879;52.986;6.282;2023-04-03T05:32:36;5.63;;;1.77;;
51824;SDS011;37879;52.986;6.282;2023-04-03T05:35:01;5.85;;;2.15;;
51824;SDS011;37879;52.986;6.282;2023-04-03T05:37:27;6.35;;;1.75;;
51824;SDS011;37879;52.986;6.282;2023-04-03T05:39:53;5.88;;;2.08;;
51824;SDS011;37879;52.986;6.282;2023-04-03T05:42:18;4.85;;;2.25;;
51824;SDS011;37879;52.986;6.282;2023-04-03T05:44:44;6.38;;;2.50;;
51824;SDS011;37879;52.986;6.282;2023-04-03T05:47:12;6.70;;;2.65;;
51824;SDS011;37879;52.986;6.282;2023-04-03T05:49:37;7.00;;;3.35;;
51824;SDS011;37879;52.986;6.282;2023-04-03T05:52:06;7.35;;;3.35;;
51824;SDS011;37879;52.986;6.282;2023-04-03T05:54:42;7.22;;;2.97;;
51824;SDS011;37879;52.986;6.282;2023-04-03T05:57:09;7.22;;;3.38;;
51824;SDS011;37879;52.986;6.282;2023-04-03T05:59:35;9.38;;;3.55;;
51824;SDS011;37879;52.986;6.282;2023-04-03T06:02:00;11.48;;;3.08;;
51824;SDS011;37879;52.986;6.282;2023-04-03T06:04:26;5.88;;;2.15;;
51824;SDS011;37879;52.986;6.282;2023-04-03T06:06:55;7.20;;;2.38;;
51824;SDS011;37879;52.986;6.282;2023-04-03T06:09:23;7.25;;;2.40;;
51824;SDS011;37879;52.986;6.282;2023-04-03T06:11:51;4.88;;;2.15;;
51824;SDS011;37879;52.986;6.282;2023-04-03T06:14:17;3.70;;;1.95;;
51824;SDS011;37879;52.986;6.282;2023-04-03T06:16:43;5.85;;;1.90;;
51824;SDS011;37879;52.986;6.282;2023-04-03T06:19:10;6.78;;;1.73;;
51824;SDS011;37879;52.986;6.282;2023-04-03T06:21:36;8.40;;;2.72;;
51824;SDS011;37879;52.986;6.282;2023-04-03T06:24:03;6.22;;;1.90;;
51824;SDS011;37879;52.986;6.282;2023-04-03T06:26:29;5.80;;;2.40;;
51824;SDS011;37879;52.986;6.282;2023-04-03T06:28:55;5.90;;;2.67;;
51824;SDS011;37879;52.986;6.282;2023-04-03T06:31:21;10.40;;;3.00;;
51824;SDS011;37879;52.986;6.282;2023-04-03T06:33:46;5.70;;;1.70;;
51824;SDS011;37879;52.986;6.282;2023-04-03T06:36:12;4.40;;;2.33;;
51824;SDS011;37879;52.986;6.282;2023-04-03T06:38:38;4.53;;;1.92;;
51824;SDS011;37879;52.986;6.282;2023-04-03T06:41:04;5.75;;;2.60;;
51824;SDS011;37879;52.986;6.282;2023-04-03T06:43:29;4.85;;;1.88;;
51824;SDS011;37879;52.986;6.282;2023-04-03T06:45:58;5.00;;;2.00;;
51824;SDS011;37879;52.986;6.282;2023-04-03T06:48:24;4.53;;;2.42;;
51824;SDS011;37879;52.986;6.282;2023-04-03T06:50:49;7.63;;;2.20;;
51824;SDS011;37879;52.986;6.282;2023-04-03T06:53:15;5.50;;;2.35;;
51824;SDS011;37879;52.986;6.282;2023-04-03T06:55:41;7.15;;;2.17;;
51824;SDS011;37879;52.986;6.282;2023-04-03T06:58:07;4.25;;;2.08;;
51824;SDS011;37879;52.986;6.282;2023-04-03T07:00:32;6.80;;;2.40;;
51824;SDS011;37879;52.986;6.282;2023-04-03T07:02:58;6.13;;;2.00;;
51824;SDS011;37879;52.986;6.282;2023-04-03T07:05:24;4.32;;;1.77;;
51824;SDS011;37879;52.986;6.282;2023-04-03T07:07:51;3.50;;;1.50;;
51824;SDS011;37879;52.986;6.282;2023-04-03T07:10:16;5.78;;;2.50;;
51824;SDS011;37879;52.986;6.282;2023-04-03T07:12:42;5.82;;;1.58;;
51824;SDS011;37879;52.986;6.282;2023-04-03T07:15:08;7.28;;;1.92;;
51824;SDS011;37879;52.986;6.282;2023-04-03T07:17:34;4.93;;;1.75;;
51824;SDS011;37879;52.986;6.282;2023-04-03T07:20:01;3.67;;;1.30;;
51824;SDS011;37879;52.986;6.282;2023-04-03T07:22:27;6.82;;;1.45;;
51824;SDS011;37879;52.986;6.282;2023-04-03T07:24:53;5.57;;;1.85;;
51824;SDS011;37879;52.986;6.282;2023-04-03T07:27:18;3.97;;;1.63;;
51824;SDS011;37879;52.986;6.282;2023-04-03T07:29:44;6.45;;;2.20;;
51824;SDS011;37879;52.986;6.282;2023-04-03T07:32:11;5.03;;;1.58;;
51824;SDS011;37879;52.986;6.282;2023-04-03T07:34:36;5.45;;;1.48;;
51824;SDS011;37879;52.986;6.282;2023-04-03T07:37:02;5.72;;;1.27;;
51824;SDS011;37879;52.986;6.282;2023-04-03T07:39:28;3.28;;;1.60;;
51824;SDS011;37879;52.986;6.282;2023-04-03T07:41:54;3.42;;;1.30;;
51824;SDS011;37879;52.986;6.282;2023-04-03T07:44:22;5.05;;;2.00;;
51824;SDS011;37879;52.986;6.282;2023-04-03T07:46:48;3.80;;;1.73;;
51824;SDS011;37879;52.986;6.282;2023-04-03T07:49:15;5.65;;;2.08;;
51824;SDS011;37879;52.986;6.282;2023-04-03T07:51:43;4.53;;;2.35;;
51824;SDS011;37879;52.986;6.282;2023-04-03T07:54:09;7.63;;;1.60;;
51824;SDS011;37879;52.986;6.282;2023-04-03T07:56:35;3.38;;;1.25;;
51824;SDS011;37879;52.986;6.282;2023-04-03T07:59:01;3.83;;;1.45;;
51824;SDS011;37879;52.986;6.282;2023-04-03T08:01:26;6.63;;;1.77;;
51824;SDS011;37879;52.986;6.282;2023-04-03T08:03:52;3.08;;;1.00;;
51824;SDS011;37879;52.986;6.282;2023-04-03T08:06:18;7.07;;;1.75;;
51824;SDS011;37879;52.986;6.282;2023-04-03T08:08:43;4.50;;;1.50;;
51824;SDS011;37879;52.986;6.282;2023-04-03T08:11:09;3.45;;;1.10;;
51824;SDS011;37879;52.986;6.282;2023-04-03T08:13:35;3.65;;;1.40;;
51824;SDS011;37879;52.986;6.282;2023-04-03T08:16:11;2.42;;;0.98;;
51824;SDS011;37879;52.986;6.282;2023-04-03T08:18:41;4.68;;;1.83;;
51824;SDS011;37879;52.986;6.282;2023-04-03T08:21:08;2.33;;;1.23;;
51824;SDS011;37879;52.986;6.282;2023-04-03T08:23:35;2.40;;;0.93;;
51824;SDS011;37879;52.986;6.282;2023-04-03T08:26:05;5.85;;;1.30;;
51824;SDS011;37879;52.986;6.282;2023-04-03T08:28:35;4.13;;;1.20;;
51824;SDS011;37879;52.986;6.282;2023-04-03T08:31:09;5.07;;;1.42;;
51824;SDS011;37879;52.986;6.282;2023-04-03T08:33:37;4.00;;;1.00;;
51824;SDS011;37879;52.986;6.282;2023-04-03T08:36:04;2.25;;;0.60;;
51824;SDS011;37879;52.986;6.282;2023-04-03T08:38:31;4.95;;;1.00;;
51824;SDS011;37879;52.986;6.282;2023-04-03T08:41:12;5.13;;;1.02;;
51824;SDS011;37879;52.986;6.282;2023-04-03T08:43:46;2.20;;;0.60;;
51824;SDS011;37879;52.986;6.282;2023-04-03T08:46:24;3.78;;;1.35;;
51824;SDS011;37879;52.986;6.282;2023-04-03T08:49:01;1.15;;;0.55;;
51824;SDS011;37879;52.986;6.282;2023-04-03T08:51:27;1.98;;;0.80;;
51824;SDS011;37879;52.986;6.282;2023-04-03T08:54:01;2.50;;;1.05;;
51824;SDS011;37879;52.986;6.282;2023-04-03T08:56:31;3.67;;;1.02;;
51824;SDS011;37879;52.986;6.282;2023-04-03T08:59:00;3.42;;;0.70;;
51824;SDS011;37879;52.986;6.282;2023-04-03T09:01:38;4.70;;;1.27;;
51824;SDS011;37879;52.986;6.282;2023-04-03T09:04:13;2.25;;;0.70;;
51824;SDS011;37879;52.986;6.282;2023-04-03T09:06:41;4.70;;;1.10;;
51824;SDS011;37879;52.986;6.282;2023-04-03T09:09:12;4.05;;;1.38;;
51824;SDS011;37879;52.986;6.282;2023-04-03T09:14:59;3.22;;;1.02;;
51824;SDS011;37879;52.986;6.282;2023-04-03T09:26:08;2.95;;;0.70;;
51824;SDS011;37879;52.986;6.282;2023-04-03T09:28:48;2.25;;;0.65;;
51824;SDS011;37879;52.986;6.282;2023-04-03T09:31:21;3.97;;;1.17;;
51824;SDS011;37879;52.986;6.282;2023-04-03T09:33:49;1.83;;;0.52;;
51824;SDS011;37879;52.986;6.282;2023-04-03T09:39:08;1.77;;;0.60;;
51824;SDS011;37879;52.986;6.282;2023-04-03T09:41:41;2.20;;;0.57;;
51824;SDS011;37879;52.986;6.282;2023-04-03T09:44:22;2.97;;;0.68;;
51824;SDS011;37879;52.986;6.282;2023-04-03T09:46:50;3.15;;;0.70;;
51824;SDS011;37879;52.986;6.282;2023-04-03T09:49:16;4.82;;;0.88;;
51824;SDS011;37879;52.986;6.282;2023-04-03T09:51:43;2.30;;;0.60;;
51824;SDS011;37879;52.986;6.282;2023-04-03T09:56:54;3.17;;;0.60;;
51824;SDS011;37879;52.986;6.282;2023-04-03T09:59:23;3.25;;;0.85;;
51824;SDS011;37879;52.986;6.282;2023-04-03T10:02:02;7.00;;;0.93;;
51824;SDS011;37879;52.986;6.282;2023-04-03T10:04:41;1.58;;;0.40;;
51824;SDS011;37879;52.986;6.282;2023-04-03T10:09:54;1.35;;;0.38;;
51824;SDS011;37879;52.986;6.282;2023-04-03T10:12:21;5.00;;;0.80;;
51824;SDS011;37879;52.986;6.282;2023-04-03T10:20:23;1.50;;;0.50;;
51824;SDS011;37879;52.986;6.282;2023-04-03T10:23:11;1.98;;;0.45;;
51824;SDS011;37879;52.986;6.282;2023-04-03T10:25:55;1.10;;;0.47;;
51824;SDS011;37879;52.986;6.282;2023-04-03T10:29:02;0.73;;;0.38;;
51824;SDS011;37879;52.986;6.282;2023-04-03T10:34:35;2.63;;;0.50;;
51824;SDS011;37879;52.986;6.282;2023-04-03T10:39:54;0.65;;;0.30;;
51824;SDS011;37879;52.986;6.282;2023-04-03T10:42:25;2.05;;;0.68;;
51824;SDS011;37879;52.986;6.282;2023-04-03T10:53:29;2.65;;;0.80;;
51824;SDS011;37879;52.986;6.282;2023-04-03T10:56:19;1.70;;;0.88;;
51824;SDS011;37879;52.986;6.282;2023-04-03T10:59:08;1.20;;;0.60;;
51824;SDS011;37879;52.986;6.282;2023-04-03T11:04:44;1.17;;;0.40;;
51824;SDS011;37879;52.986;6.282;2023-04-03T11:07:16;3.00;;;0.50;;
51824;SDS011;37879;52.986;6.282;2023-04-03T11:09:46;1.02;;;0.40;;
51824;SDS011;37879;52.986;6.282;2023-04-03T11:12:21;0.85;;;0.30;;
51824;SDS011;37879;52.986;6.282;2023-04-03T11:15:13;0.80;;;0.30;;
51824;SDS011;37879;52.986;6.282;2023-04-03T11:17:43;2.55;;;0.80;;
51824;SDS011;37879;52.986;6.282;2023-04-03T11:20:33;1.67;;;0.60;;
51824;SDS011;37879;52.986;6.282;2023-04-03T11:23:13;2.53;;;0.50;;
51824;SDS011;37879;52.986;6.282;2023-04-03T11:25:40;1.35;;;0.50;;
51824;SDS011;37879;52.986;6.282;2023-04-03T11:28:16;2.83;;;0.40;;
51824;SDS011;37879;52.986;6.282;2023-04-03T11:36:04;1.92;;;0.60;;
51824;SDS011;37879;52.986;6.282;2023-04-03T11:38:38;2.53;;;0.65;;
51824;SDS011;37879;52.986;6.282;2023-04-03T11:41:09;3.55;;;0.82;;
51824;SDS011;37879;52.986;6.282;2023-04-03T11:43:56;2.85;;;0.52;;
51824;SDS011;37879;52.986;6.282;2023-04-03T11:46:50;1.17;;;0.50;;
51824;SDS011;37879;52.986;6.282;2023-04-03T11:57:46;1.83;;;0.57;;
51824;SDS011;37879;52.986;6.282;2023-04-03T12:13:42;2.45;;;0.68;;
51824;SDS011;37879;52.986;6.282;2023-04-03T12:45:22;2.22;;;0.55;;
51824;SDS011;37879;52.986;6.282;2023-04-03T12:47:49;2.58;;;0.57;;
51824;SDS011;37879;52.986;6.282;2023-04-03T12:52:48;2.85;;;0.88;;
51824;SDS011;37879;52.986;6.282;2023-04-03T12:55:25;2.50;;;0.82;;
51824;SDS011;37879;52.986;6.282;2023-04-03T12:57:51;2.47;;;0.75;;
51824;SDS011;37879;52.986;6.282;2023-04-03T13:00:33;1.20;;;0.60;;
51824;SDS011;37879;52.986;6.282;2023-04-03T13:03:03;1.50;;;0.45;;
51824;SDS011;37879;52.986;6.282;2023-04-03T13:05:31;4.15;;;0.68;;
51824;SDS011;37879;52.986;6.282;2023-04-03T13:07:59;1.75;;;0.73;;
51824;SDS011;37879;52.986;6.282;2023-04-03T13:10:28;1.50;;;0.60;;
51824;SDS011;37879;52.986;6.282;2023-04-03T13:12:56;2.47;;;0.93;;
51824;SDS011;37879;52.986;6.282;2023-04-03T13:15:25;2.47;;;0.65;;
51824;SDS011;37879;52.986;6.282;2023-04-03T13:17:53;4.72;;;0.80;;
51824;SDS011;37879;52.986;6.282;2023-04-03T13:20:21;1.75;;;0.70;;
51824;SDS011;37879;52.986;6.282;2023-04-03T13:25:21;2.13;;;0.90;;
51824;SDS011;37879;52.986;6.282;2023-04-03T13:27:48;2.13;;;0.60;;
51824;SDS011;37879;52.986;6.282;2023-04-03T13:30:22;1.88;;;0.63;;
51824;SDS011;37879;52.986;6.282;2023-04-03T13:32:52;3.83;;;1.20;;
51824;SDS011;37879;52.986;6.282;2023-04-03T13:35:53;2.15;;;1.05;;
51824;SDS011;37879;52.986;6.282;2023-04-03T13:40:48;3.15;;;1.02;;
51824;SDS011;37879;52.986;6.282;2023-04-03T13:43:18;2.17;;;0.80;;
51824;SDS011;37879;52.986;6.282;2023-04-03T13:48:49;3.47;;;1.63;;
51824;SDS011;37879;52.986;6.282;2023-04-03T13:51:18;4.53;;;0.82;;
51824;SDS011;37879;52.986;6.282;2023-04-03T13:53:53;3.45;;;0.90;;
51824;SDS011;37879;52.986;6.282;2023-04-03T14:01:55;2.40;;;0.82;;
51824;SDS011;37879;52.986;6.282;2023-04-03T14:04:27;2.72;;;0.90;;
51824;SDS011;37879;52.986;6.282;2023-04-03T14:06:58;4.13;;;1.10;;
51824;SDS011;37879;52.986;6.282;2023-04-03T14:09:25;1.73;;;0.70;;
51824;SDS011;37879;52.986;6.282;2023-04-03T14:11:54;2.35;;;0.77;;
51824;SDS011;37879;52.986;6.282;2023-04-03T14:14:30;2.97;;;0.93;;
51824;SDS011;37879;52.986;6.282;2023-04-03T14:16:59;2.88;;;0.70;;
51824;SDS011;37879;52.986;6.282;2023-04-03T14:19:28;1.88;;;0.85;;
51824;SDS011;37879;52.986;6.282;2023-04-03T14:21:56;4.10;;;1.10;;
51824;SDS011;37879;52.986;6.282;2023-04-03T14:24:22;5.38;;;0.98;;
51824;SDS011;37879;52.986;6.282;2023-04-03T14:26:48;2.20;;;0.90;;
51824;SDS011;37879;52.986;6.282;2023-04-03T14:29:16;2.88;;;0.93;;
51824;SDS011;37879;52.986;6.282;2023-04-03T14:31:43;1.75;;;0.82;;
51824;SDS011;37879;52.986;6.282;2023-04-03T14:34:13;2.67;;;1.05;;
51824;SDS011;37879;52.986;6.282;2023-04-03T14:36:40;3.53;;;1.15;;
51824;SDS011;37879;52.986;6.282;2023-04-03T14:39:10;2.65;;;0.90;;
51824;SDS011;37879;52.986;6.282;2023-04-03T14:41:42;2.08;;;1.25;;
51824;SDS011;37879;52.986;6.282;2023-04-03T14:44:09;2.92;;;0.70;;
51824;SDS011;37879;52.986;6.282;2023-04-03T14:46:35;6.43;;;0.82;;
51824;SDS011;37879;52.986;6.282;2023-04-03T14:49:04;2.90;;;1.00;;
51824;SDS011;37879;52.986;6.282;2023-04-03T14:51:37;3.20;;;0.63;;
51824;SDS011;37879;52.986;6.282;2023-04-03T14:54:03;3.28;;;0.88;;
51824;SDS011;37879;52.986;6.282;2023-04-03T14:56:30;3.25;;;0.85;;
51824;SDS011;37879;52.986;6.282;2023-04-03T14:58:57;1.50;;;0.50;;
51824;SDS011;37879;52.986;6.282;2023-04-03T15:01:25;2.42;;;0.80;;
51824;SDS011;37879;52.986;6.282;2023-04-03T15:03:52;4.60;;;1.83;;
51824;SDS011;37879;52.986;6.282;2023-04-03T15:06:18;2.42;;;0.70;;
51824;SDS011;37879;52.986;6.282;2023-04-03T15:08:45;4.15;;;1.15;;
51824;SDS011;37879;52.986;6.282;2023-04-03T15:11:11;1.20;;;0.52;;
51824;SDS011;37879;52.986;6.282;2023-04-03T15:13:38;1.63;;;0.63;;
51824;SDS011;37879;52.986;6.282;2023-04-03T15:16:05;1.75;;;1.10;;
51824;SDS011;37879;52.986;6.282;2023-04-03T15:18:37;2.17;;;0.70;;
51824;SDS011;37879;52.986;6.282;2023-04-03T15:21:03;1.77;;;0.80;;
51824;SDS011;37879;52.986;6.282;2023-04-03T15:23:30;3.03;;;0.70;;
51824;SDS011;37879;52.986;6.282;2023-04-03T15:25:56;1.80;;;0.85;;
51824;SDS011;37879;52.986;6.282;2023-04-03T15:28:23;1.67;;;0.63;;
51824;SDS011;37879;52.986;6.282;2023-04-03T15:30:53;3.53;;;1.05;;
51824;SDS011;37879;52.986;6.282;2023-04-03T15:33:19;2.42;;;1.05;;
51824;SDS011;37879;52.986;6.282;2023-04-03T15:35:45;2.80;;;0.98;;
51824;SDS011;37879;52.986;6.282;2023-04-03T15:38:11;2.20;;;0.75;;
51824;SDS011;37879;52.986;6.282;2023-04-03T15:40:37;4.20;;;1.05;;
51824;SDS011;37879;52.986;6.282;2023-04-03T15:43:04;1.50;;;0.73;;
51824;SDS011;37879;52.986;6.282;2023-04-03T15:45:30;2.45;;;1.00;;
51824;SDS011;37879;52.986;6.282;2023-04-03T15:47:57;1.95;;;0.90;;
51824;SDS011;37879;52.986;6.282;2023-04-03T15:50:22;2.40;;;0.93;;
51824;SDS011;37879;52.986;6.282;2023-04-03T15:52:49;1.95;;;0.70;;
51824;SDS011;37879;52.986;6.282;2023-04-03T15:55:22;2.47;;;0.80;;
51824;SDS011;37879;52.986;6.282;2023-04-03T15:57:52;1.77;;;0.40;;
51824;SDS011;37879;52.986;6.282;2023-04-03T16:00:19;1.50;;;0.52;;
51824;SDS011;37879;52.986;6.282;2023-04-03T16:02:46;1.52;;;0.50;;
51824;SDS011;37879;52.986;6.282;2023-04-03T16:05:13;1.55;;;0.57;;
51824;SDS011;37879;52.986;6.282;2023-04-03T16:07:42;3.78;;;1.02;;
51824;SDS011;37879;52.986;6.282;2023-04-03T16:10:11;1.60;;;0.52;;
51824;SDS011;37879;52.986;6.282;2023-04-03T16:12:38;1.60;;;0.60;;
51824;SDS011;37879;52.986;6.282;2023-04-03T16:15:05;3.42;;;1.23;;
51824;SDS011;37879;52.986;6.282;2023-04-03T16:17:31;2.22;;;0.70;;
51824;SDS011;37879;52.986;6.282;2023-04-03T16:19:58;1.80;;;0.88;;
51824;SDS011;37879;52.986;6.282;2023-04-03T16:22:25;2.33;;;0.95;;
51824;SDS011;37879;52.986;6.282;2023-04-03T16:24:52;3.08;;;1.00;;
51824;SDS011;37879;52.986;6.282;2023-04-03T16:27:18;3.10;;;1.10;;
51824;SDS011;37879;52.986;6.282;2023-04-03T16:29:44;2.08;;;0.70;;
51824;SDS011;37879;52.986;6.282;2023-04-03T16:32:10;2.92;;;0.90;;
51824;SDS011;37879;52.986;6.282;2023-04-03T16:34:37;2.78;;;1.90;;
51824;SDS011;37879;52.986;6.282;2023-04-03T16:37:03;3.13;;;1.02;;
51824;SDS011;37879;52.986;6.282;2023-04-03T16:39:28;3.90;;;1.90;;
51824;SDS011;37879;52.986;6.282;2023-04-03T16:41:54;2.55;;;1.23;;
51824;SDS011;37879;52.986;6.282;2023-04-03T16:44:20;3.50;;;0.90;;
51824;SDS011;37879;52.986;6.282;2023-04-03T16:46:46;1.23;;;0.50;;
51824;SDS011;37879;52.986;6.282;2023-04-03T16:49:12;2.45;;;1.05;;
51824;SDS011;37879;52.986;6.282;2023-04-03T16:51:37;1.83;;;1.05;;
51824;SDS011;37879;52.986;6.282;2023-04-03T16:54:03;2.10;;;1.17;;
51824;SDS011;37879;52.986;6.282;2023-04-03T16:56:28;3.67;;;1.25;;
51824;SDS011;37879;52.986;6.282;2023-04-03T16:58:54;2.95;;;1.63;;